createdAt,value
2019-04-03T00:02:21.020Z,16.10
2019-04-03T00:07:17.656Z,17.27
2019-04-03T00:12:13.452Z,18.87
2019-04-03T00:17:10.674Z,14.97
2019-04-03T00:22:06.389Z,14.83
2019-04-03T00:27:02.176Z,18.87
2019-04-03T00:31:57.842Z,16.97
2019-04-03T00:36:53.729Z,17.30
2019-04-03T00:41:50.669Z,18.00
2019-04-03T00:46:46.713Z,15.83
2019-04-03T00:51:42.521Z,18.17
2019-04-03T00:56:39.365Z,15.83
2019-04-03T01:01:35.097Z,20.50
2019-04-03T01:06:30.789Z,16.27
2019-04-03T01:11:26.784Z,17.07
2019-04-03T01:16:22.720Z,16.20
2019-04-03T01:21:18.296Z,18.27
2019-04-03T01:26:13.950Z,17.90
2019-04-03T01:31:09.520Z,17.80
2019-04-03T01:36:05.219Z,19.57
2019-04-03T01:41:00.935Z,19.17
2019-04-03T01:45:57.271Z,18.30
2019-04-03T01:50:53.180Z,21.77
2019-04-03T01:55:48.853Z,25.20
2019-04-03T02:00:44.508Z,20.50
2019-04-03T02:05:41.553Z,23.37
2019-04-03T02:10:37.579Z,20.43
2019-04-03T02:15:33.147Z,22.07
2019-04-03T02:20:28.708Z,17.53
2019-04-03T02:25:24.273Z,19.70
2019-04-03T02:30:19.930Z,17.03
2019-04-03T02:35:18.453Z,17.67
2019-04-03T02:40:13.993Z,18.57
2019-04-03T02:45:09.769Z,20.40
2019-04-03T02:50:06.430Z,18.13
2019-04-03T02:55:06.723Z,19.40
2019-04-03T03:00:01.039Z,21.37
2019-04-03T03:04:58.062Z,19.50
2019-04-03T03:09:54.844Z,18.07
2019-04-03T03:14:51.649Z,17.63
2019-04-03T03:19:49.807Z,22.13
2019-04-03T03:24:46.613Z,20.27
2019-04-03T03:29:42.284Z,20.97
2019-04-03T03:34:54.836Z,25.67
2019-04-03T03:39:37.137Z,23.37
2019-04-03T03:44:33.326Z,31.17
2019-04-03T03:49:31.067Z,24.20
2019-04-03T03:54:28.786Z,21.60
2019-04-03T03:59:26.251Z,22.13
2019-04-03T04:04:22.175Z,22.10
2019-04-03T04:09:18.804Z,19.80
2019-04-03T04:14:15.073Z,21.50
2019-04-03T04:19:11.041Z,49.60
2019-04-03T04:24:06.802Z,25.80
2019-04-03T04:29:02.589Z,22.63
2019-04-03T04:33:58.187Z,23.73
2019-04-03T04:38:53.994Z,29.20
2019-04-03T04:43:49.693Z,26.93
2019-04-03T04:48:45.380Z,26.23
2019-04-03T04:53:41.044Z,19.60
2019-04-03T04:58:37.736Z,21.90
2019-04-03T05:03:33.331Z,22.43
2019-04-03T05:08:29.148Z,20.47
2019-04-03T05:13:26.029Z,27.47
2019-04-03T05:18:21.713Z,31.07
2019-04-03T05:23:17.460Z,34.27
2019-04-03T05:28:13.125Z,27.97
2019-04-03T05:33:10.643Z,28.13
2019-04-03T05:38:06.204Z,29.57
2019-04-03T05:43:01.810Z,26.70
2019-04-03T05:47:57.695Z,27.07
2019-04-03T05:52:53.764Z,26.03
2019-04-03T05:57:49.501Z,34.10
2019-04-03T06:02:45.176Z,28.03
2019-04-03T06:07:41.222Z,41.53
2019-04-03T06:12:37.825Z,32.77
2019-04-03T06:17:33.483Z,33.70
2019-04-03T06:22:29.247Z,29.07
2019-04-03T06:27:27.492Z,32.73
2019-04-03T06:32:24.592Z,30.33
2019-04-03T06:37:21.653Z,27.67
2019-04-03T06:42:17.443Z,28.90
2019-04-03T06:47:13.265Z,28.53
2019-04-03T06:52:08.875Z,30.63
2019-04-03T06:57:04.771Z,32.87
2019-04-03T07:02:00.440Z,26.63
2019-04-03T07:06:56.666Z,32.77
2019-04-03T07:11:52.479Z,26.70
2019-04-03T07:16:48.188Z,25.70
2019-04-03T07:21:43.856Z,28.57
2019-04-03T07:26:39.490Z,31.37
2019-04-03T07:31:35.294Z,26.63
2019-04-03T07:36:31.035Z,27.47
2019-04-03T07:41:26.892Z,19.97
2019-04-03T07:46:22.857Z,20.60
2019-04-03T07:51:18.470Z,20.53
2019-04-03T07:56:14.337Z,22.10
2019-04-03T08:01:11.082Z,17.60
2019-04-03T08:06:06.945Z,20.80
2019-04-03T08:11:03.460Z,31.43
2019-04-03T08:15:59.300Z,22.53
2019-04-03T08:20:56.931Z,18.83
2019-04-03T08:25:54.289Z,23.57
2019-04-03T08:30:49.652Z,21.33
2019-04-03T08:35:45.377Z,23.30
2019-04-03T08:40:40.941Z,18.60
2019-04-03T08:45:38.525Z,18.50
2019-04-03T08:50:35.865Z,20.90
2019-04-03T08:55:35.126Z,20.87
2019-04-03T09:00:32.153Z,15.00
2019-04-03T09:05:28.438Z,16.07
2019-04-03T09:10:24.595Z,19.10
2019-04-03T09:15:20.547Z,18.20
2019-04-03T09:20:16.357Z,18.97
2019-04-03T09:25:13.771Z,16.23
2019-04-03T09:30:15.447Z,21.33
2019-04-03T09:35:10.821Z,26.27
2019-04-03T09:40:07.415Z,28.50
2019-04-03T09:45:03.166Z,20.10
2019-04-03T09:49:58.862Z,18.30
2019-04-03T09:54:54.565Z,48.83
2019-04-03T09:59:50.237Z,22.47
2019-04-03T10:04:45.936Z,25.07
2019-04-03T10:09:43.878Z,17.43
2019-04-03T10:14:39.205Z,15.80
2019-04-03T10:19:36.705Z,19.63
2019-04-03T10:24:32.516Z,13.87
2019-04-03T10:29:28.491Z,13.97
2019-04-03T10:34:24.662Z,14.67
2019-04-03T10:39:20.782Z,14.67
2019-04-03T10:44:16.576Z,13.90
2019-04-03T10:49:12.156Z,15.37
2019-04-03T10:54:08.816Z,11.93
2019-04-03T10:59:11.710Z,12.30
2019-04-03T11:04:01.993Z,12.13
2019-04-03T11:08:57.880Z,11.90
2019-04-03T11:13:54.299Z,11.43
2019-04-03T11:18:59.275Z,11.73
2019-04-03T11:23:47.977Z,10.73
2019-04-03T11:28:43.752Z,10.97
2019-04-03T11:33:39.339Z,9.83
2019-04-03T11:38:36.129Z,9.73
2019-04-03T11:43:35.375Z,9.30
2019-04-03T11:48:31.249Z,9.67
2019-04-03T11:53:27.110Z,9.03
2019-04-03T11:58:22.873Z,8.60
2019-04-03T12:03:19.735Z,10.33
2019-04-03T12:08:15.425Z,9.10
2019-04-03T12:13:13.611Z,8.40
2019-04-03T12:18:08.580Z,12.27
2019-04-03T12:23:04.401Z,16.07
2019-04-03T12:28:00.096Z,6.50
2019-04-03T12:32:58.454Z,6.33
2019-04-03T12:37:54.514Z,5.40
2019-04-03T12:42:50.238Z,6.97
2019-04-03T12:47:45.870Z,4.80
2019-04-03T12:52:43.505Z,4.43
2019-04-03T12:57:39.781Z,4.33
2019-04-03T13:02:35.928Z,5.23
2019-04-03T13:07:31.592Z,4.87
2019-04-03T13:12:27.904Z,5.80
2019-04-03T13:17:23.753Z,5.17
2019-04-03T13:22:19.669Z,7.10
2019-04-03T13:27:15.929Z,4.50
2019-04-03T13:32:11.545Z,4.60
2019-04-03T13:37:07.475Z,7.33
2019-04-03T13:42:03.184Z,4.57
2019-04-03T13:46:58.866Z,6.73
2019-04-03T13:51:56.276Z,5.70
2019-04-03T13:57:03.320Z,5.40
2019-04-03T14:01:58.992Z,6.13
2019-04-03T14:06:54.690Z,6.57
2019-04-03T14:11:50.385Z,5.87
2019-04-03T14:16:46.706Z,6.60
2019-04-03T14:21:42.368Z,12.27
2019-04-03T14:26:39.401Z,7.53
2019-04-03T14:31:37.359Z,6.10
2019-04-03T14:36:32.477Z,23.73
2019-04-03T14:41:28.184Z,7.77
2019-04-03T14:46:23.850Z,3.97
2019-04-03T14:51:19.521Z,3.50
2019-04-03T14:56:15.351Z,3.97
2019-04-03T15:01:11.082Z,5.00
2019-04-03T15:06:07.017Z,3.07
2019-04-03T15:11:03.819Z,3.60
2019-04-03T15:16:00.675Z,3.13
2019-04-03T15:20:56.821Z,4.93
2019-04-03T15:25:53.379Z,5.73
2019-04-03T15:30:49.051Z,3.33
2019-04-03T15:35:44.775Z,5.13
2019-04-03T15:40:41.376Z,3.10
2019-04-03T15:45:37.059Z,2.73
2019-04-03T15:50:36.333Z,3.67
2019-04-03T15:55:29.977Z,2.73
2019-04-03T16:00:26.468Z,3.03
2019-04-03T16:05:22.379Z,4.10
2019-04-03T16:10:18.484Z,2.90
2019-04-03T16:15:15.684Z,2.60
2019-04-03T16:20:11.699Z,3.23
2019-04-03T16:25:10.104Z,2.40
2019-04-03T16:30:14.858Z,2.90
2019-04-03T16:35:12.591Z,2.43
2019-04-03T16:40:09.060Z,2.40
2019-04-03T16:45:08.447Z,2.43
2019-04-03T16:50:05.925Z,2.97
2019-04-03T16:55:05.457Z,4.53
2019-04-03T17:00:01.279Z,6.10
2019-04-03T17:04:58.390Z,3.57
2019-04-03T17:09:54.271Z,3.77
2019-04-03T17:14:52.927Z,4.67
2019-04-03T17:19:51.369Z,3.30
2019-04-03T17:24:49.522Z,4.40
2019-04-03T17:29:46.585Z,9.40
2019-04-03T17:34:43.936Z,8.03
2019-04-03T17:39:40.684Z,13.03
2019-04-03T17:44:38.357Z,4.73
2019-04-03T17:49:33.842Z,10.33
2019-04-03T17:54:29.563Z,8.47
2019-04-03T17:59:27.088Z,8.90
2019-04-03T18:04:22.790Z,10.53
2019-04-03T18:09:21.602Z,8.07
2019-04-03T18:14:17.312Z,11.33
2019-04-03T18:19:13.292Z,7.63
2019-04-03T18:24:09.383Z,6.47
2019-04-03T18:29:06.632Z,6.37
2019-04-03T18:34:04.801Z,7.57
2019-04-03T18:39:00.493Z,6.57
2019-04-03T18:43:59.076Z,5.00
2019-04-03T18:49:00.856Z,5.57
2019-04-03T18:53:52.265Z,8.37
2019-04-03T18:58:49.303Z,11.80
2019-04-03T19:03:44.949Z,14.13
2019-04-03T19:08:40.859Z,9.97
2019-04-03T19:13:36.945Z,11.00
2019-04-03T19:18:34.970Z,9.00
2019-04-03T19:23:30.735Z,9.57
2019-04-03T19:28:26.533Z,9.23
2019-04-03T19:33:22.240Z,13.57
2019-04-03T19:38:18.753Z,15.57
2019-04-03T19:43:15.366Z,11.37
2019-04-03T19:48:11.214Z,10.43
2019-04-03T19:53:08.084Z,9.80
2019-04-03T19:58:03.894Z,8.50
2019-04-03T20:02:59.584Z,9.83
2019-04-03T20:07:58.602Z,10.83
2019-04-03T20:12:52.629Z,11.73
2019-04-03T20:17:48.478Z,13.57
2019-04-03T20:22:44.995Z,12.33
2019-04-03T20:27:40.801Z,9.13
2019-04-03T20:32:39.953Z,7.40
2019-04-03T20:37:34.029Z,9.93
2019-04-03T20:42:29.626Z,10.23
2019-04-03T20:47:26.965Z,14.20
2019-04-03T20:52:22.612Z,10.27
2019-04-03T20:57:18.506Z,11.57
2019-04-03T21:02:14.548Z,14.50
2019-04-03T21:07:10.186Z,12.97
2019-04-03T21:12:06.455Z,13.47
2019-04-03T21:17:02.136Z,11.30
2019-04-03T21:21:59.625Z,16.17
2019-04-03T21:26:55.025Z,12.87
2019-04-03T21:31:51.632Z,13.73
2019-04-03T21:36:47.280Z,14.87
2019-04-03T21:41:42.981Z,15.43
2019-04-03T21:46:40.238Z,16.43
2019-04-03T21:51:37.227Z,14.43
2019-04-03T21:56:33.433Z,15.93
2019-04-03T22:01:29.187Z,15.93
2019-04-03T22:06:26.996Z,17.77
2019-04-03T22:11:23.381Z,12.10
2019-04-03T22:16:20.404Z,13.73
2019-04-03T22:21:16.293Z,14.17
2019-04-03T22:26:12.107Z,13.73
2019-04-03T22:31:07.844Z,12.97
2019-04-03T22:36:04.093Z,10.93
2019-04-03T22:40:59.785Z,11.57
2019-04-03T22:45:55.525Z,12.63
2019-04-03T22:50:51.127Z,11.87
2019-04-03T22:55:47.074Z,10.30
2019-04-03T23:00:46.835Z,11.07
2019-04-03T23:05:42.473Z,12.17
2019-04-03T23:10:38.336Z,10.93
2019-04-03T23:15:35.581Z,10.63
2019-04-03T23:20:31.416Z,11.50
2019-04-03T23:25:29.791Z,10.77
2019-04-03T23:30:25.978Z,10.23
2019-04-03T23:35:21.687Z,10.50
2019-04-03T23:40:17.542Z,9.60
2019-04-03T23:45:15.551Z,10.50
2019-04-03T23:50:11.524Z,12.50
2019-04-03T23:55:07.790Z,10.90
